sensor_id;sensor_type;location;lat;lon;timestamp;pressure;altitude;pressure_sealevel;temperature;humidity
62791;BME280;48830;53.426;10.300;2023-03-18T00:00:45;100738.25;;;10.87;100.00
62791;BME280;48830;53.426;10.300;2023-03-18T00:03:11;100737.50;;;10.94;100.00
62791;BME280;48830;53.426;10.300;2023-03-18T00:05:37;100739.09;;;10.86;100.00
62791;BME280;48830;53.426;10.300;2023-03-18T00:08:04;100742.59;;;10.88;100.00
62791;BME280;48830;53.426;10.300;2023-03-18T00:10:30;100745.91;;;10.81;100.00
62791;BME280;48830;53.426;10.300;2023-03-18T00:12:57;100742.25;;;10.65;100.00
62791;BME280;48830;53.426;10.300;2023-03-18T00:15:23;100735.59;;;10.81;100.00
62791;BME280;48830;53.426;10.300;2023-03-18T00:17:49;100733.00;;;10.77;100.00
62791;BME280;48830;53.426;10.300;2023-03-18T00:20:15;100724.53;;;10.83;100.00
62791;BME280;48830;53.426;10.300;2023-03-18T00:22:43;100724.44;;;10.77;100.00
62791;BME280;48830;53.426;10.300;2023-03-18T00:25:11;100719.31;;;10.78;100.00
62791;BME280;48830;53.426;10.300;2023-03-18T00:27:38;100724.44;;;10.77;100.00
62791;BME280;48830;53.426;10.300;2023-03-18T00:30:05;100720.16;;;10.77;100.00
62791;BME280;48830;53.426;10.300;2023-03-18T00:32:32;100733.72;;;10.67;100.00
62791;BME280;48830;53.426;10.300;2023-03-18T00:34:58;100733.72;;;10.67;100.00
62791;BME280;48830;53.426;10.300;2023-03-18T00:37:26;100737.94;;;10.62;100.00
62791;BME280;48830;53.426;10.300;2023-03-18T00:40:06;100733.75;;;10.70;100.00
62791;BME280;48830;53.426;10.300;2023-03-18T00:42:37;100726.03;;;10.70;100.00
62791;BME280;48830;53.426;10.300;2023-03-18T00:45:13;100729.44;;;10.68;100.00
62791;BME280;48830;53.426;10.300;2023-03-18T00:47:39;100736.16;;;10.60;100.00
62791;BME280;48830;53.426;10.300;2023-03-18T00:50:06;100731.88;;;10.59;100.00
62791;BME280;48830;53.426;10.300;2023-03-18T00:52:33;100736.06;;;10.52;100.00
62791;BME280;48830;53.426;10.300;2023-03-18T00:54:59;100734.44;;;10.56;100.00
62791;BME280;48830;53.426;10.300;2023-03-18T00:57:25;100744.56;;;10.48;100.00
62791;BME280;48830;53.426;10.300;2023-03-18T00:59:51;100745.53;;;10.55;100.00
62791;BME280;48830;53.426;10.300;2023-03-18T01:02:16;100743.88;;;10.58;100.00
62791;BME280;48830;53.426;10.300;2023-03-18T01:04:43;100741.28;;;10.57;100.00
62791;BME280;48830;53.426;10.300;2023-03-18T01:07:08;100738.72;;;10.58;100.00
62791;BME280;48830;53.426;10.300;2023-03-18T01:09:36;100737.00;;;10.57;100.00
62791;BME280;48830;53.426;10.300;2023-03-18T01:12:04;100731.94;;;10.60;100.00
62791;BME280;48830;53.426;10.300;2023-03-18T01:14:29;100733.56;;;10.55;100.00
62791;BME280;48830;53.426;10.300;2023-03-18T01:16:55;100725.88;;;10.60;100.00
62791;BME280;48830;53.426;10.300;2023-03-18T01:19:20;100731.06;;;10.61;100.00
62791;BME280;48830;53.426;10.300;2023-03-18T01:21:47;100734.50;;;10.60;100.00
62791;BME280;48830;53.426;10.300;2023-03-18T01:24:12;100733.59;;;10.60;100.00
62791;BME280;48830;53.426;10.300;2023-03-18T01:26:37;100715.66;;;10.63;100.00
62791;BME280;48830;53.426;10.300;2023-03-18T01:29:03;100731.09;;;10.63;100.00
62791;BME280;48830;53.426;10.300;2023-03-18T01:31:30;100713.97;;;10.63;100.00
62791;BME280;48830;53.426;10.300;2023-03-18T01:34:02;100725.09;;;10.62;100.00
62791;BME280;48830;53.426;10.300;2023-03-18T01:36:37;100718.25;;;10.64;100.00
62791;BME280;48830;53.426;10.300;2023-03-18T01:39:06;100731.03;;;10.58;100.00
62791;BME280;48830;53.426;10.300;2023-03-18T01:41:32;100734.38;;;10.52;100.00
62791;BME280;48830;53.426;10.300;2023-03-18T01:43:58;100730.06;;;10.51;100.00
62791;BME280;48830;53.426;10.300;2023-03-18T01:48:58;100747.28;;;10.57;100.00
62791;BME280;48830;53.426;10.300;2023-03-18T01:51:25;100749.00;;;10.57;100.00
62791;BME280;48830;53.426;10.300;2023-03-18T01:53:52;100741.28;;;10.55;100.00
62791;BME280;48830;53.426;10.300;2023-03-18T01:56:19;100743.88;;;10.58;100.00
62791;BME280;48830;53.426;10.300;2023-03-18T01:58:48;100737.00;;;10.57;100.00
62791;BME280;48830;53.426;10.300;2023-03-18T02:03:43;100746.50;;;10.61;100.00
62791;BME280;48830;53.426;10.300;2023-03-18T02:06:10;100745.63;;;10.61;100.00
62791;BME280;48830;53.426;10.300;2023-03-18T02:08:37;100745.66;;;10.62;100.00
62791;BME280;48830;53.426;10.300;2023-03-18T02:11:06;100745.66;;;10.62;100.00
62791;BME280;48830;53.426;10.300;2023-03-18T02:13:37;100750.78;;;10.62;100.00
62791;BME280;48830;53.426;10.300;2023-03-18T02:16:14;100755.94;;;10.62;100.00
62791;BME280;48830;53.426;10.300;2023-03-18T02:18:47;100757.66;;;10.63;100.00
62791;BME280;48830;53.426;10.300;2023-03-18T02:21:22;100761.09;;;10.65;100.00
62791;BME280;48830;53.426;10.300;2023-03-18T02:24:08;100756.81;;;10.64;100.00
62791;BME280;48830;53.426;10.300;2023-03-18T02:26:56;100760.22;;;10.62;100.00
62791;BME280;48830;53.426;10.300;2023-03-18T02:29:30;100754.22;;;10.61;100.00
62791;BME280;48830;53.426;10.300;2023-03-18T02:32:04;100758.41;;;10.56;100.00
62791;BME280;48830;53.426;10.300;2023-03-18T02:34:32;100762.78;;;10.60;100.00
62791;BME280;48830;53.426;10.300;2023-03-18T02:36:58;100768.78;;;10.64;100.00
62791;BME280;48830;53.426;10.300;2023-03-18T02:39:24;100767.94;;;10.63;100.00
62791;BME280;48830;53.426;10.300;2023-03-18T02:41:51;100771.34;;;10.62;100.00
62791;BME280;48830;53.426;10.300;2023-03-18T02:44:18;100761.06;;;10.62;100.00
62791;BME280;48830;53.426;10.300;2023-03-18T02:47:17;100751.56;;;10.58;100.00
62791;BME280;48830;53.426;10.300;2023-03-18T02:49:45;100756.72;;;10.60;100.00
62791;BME280;48830;53.426;10.300;2023-03-18T02:52:12;100756.72;;;10.57;100.00
62791;BME280;48830;53.426;10.300;2023-03-18T02:54:37;100755.84;;;10.56;100.00
62791;BME280;48830;53.426;10.300;2023-03-18T02:57:03;100763.50;;;10.55;100.00
62791;BME280;48830;53.426;10.300;2023-03-18T02:59:28;100757.59;;;10.59;100.00
62791;BME280;48830;53.426;10.300;2023-03-18T03:01:56;100752.38;;;10.54;100.00
62791;BME280;48830;53.426;10.300;2023-03-18T03:04:23;100754.94;;;10.52;100.00
62791;BME280;48830;53.426;10.300;2023-03-18T03:06:50;100753.28;;;10.56;100.00
62791;BME280;48830;53.426;10.300;2023-03-18T03:09:21;100761.00;;;10.56;100.00
62791;BME280;48830;53.426;10.300;2023-03-18T03:11:47;100754.13;;;10.55;100.00
62791;BME280;48830;53.426;10.300;2023-03-18T03:14:18;100750.72;;;10.56;100.00
62791;BME280;48830;53.426;10.300;2023-03-18T03:16:46;100752.34;;;10.52;100.00
62791;BME280;48830;53.426;10.300;2023-03-18T03:19:12;100758.34;;;10.50;100.00
62791;BME280;48830;53.426;10.300;2023-03-18T03:21:38;100754.00;;;10.49;100.00
62791;BME280;48830;53.426;10.300;2023-03-18T03:24:05;100762.63;;;10.51;100.00
62791;BME280;48830;53.426;10.300;2023-03-18T03:26:31;100761.78;;;10.52;100.00
62791;BME280;48830;53.426;10.300;2023-03-18T03:28:58;100766.03;;;10.50;100.00
62791;BME280;48830;53.426;10.300;2023-03-18T03:31:24;100761.75;;;10.50;100.00
62791;BME280;48830;53.426;10.300;2023-03-18T03:33:51;100765.19;;;10.49;100.00
62791;BME280;48830;53.426;10.300;2023-03-18T03:36:17;100762.63;;;10.51;100.00
62791;BME280;48830;53.426;10.300;2023-03-18T03:38:43;100760.91;;;10.50;100.00
62791;BME280;48830;53.426;10.300;2023-03-18T03:41:10;100760.91;;;10.51;100.00
62791;BME280;48830;53.426;10.300;2023-03-18T03:43:39;100760.91;;;10.50;100.00
62791;BME280;48830;53.426;10.300;2023-03-18T03:46:06;100754.00;;;10.49;100.00
62791;BME280;48830;53.426;10.300;2023-03-18T03:48:32;100760.94;;;10.53;100.00
62791;BME280;48830;53.426;10.300;2023-03-18T03:50:58;100757.47;;;10.49;100.00
62791;BME280;48830;53.426;10.300;2023-03-18T03:53:25;100754.94;;;10.52;100.00
62791;BME280;48830;53.426;10.300;2023-03-18T03:55:51;100751.50;;;10.52;100.00
62791;BME280;48830;53.426;10.300;2023-03-18T03:58:17;100758.34;;;10.53;100.00
62791;BME280;48830;53.426;10.300;2023-03-18T04:00:44;100760.94;;;10.53;100.00
62791;BME280;48830;53.426;10.300;2023-03-18T04:03:10;100759.22;;;10.52;100.00
62791;BME280;48830;53.426;10.300;2023-03-18T04:05:36;100753.19;;;10.51;100.00
62791;BME280;48830;53.426;10.300;2023-03-18T04:08:01;100764.34;;;10.50;100.00
62791;BME280;48830;53.426;10.300;2023-03-18T04:10:34;100764.34;;;10.52;100.00
62791;BME280;48830;53.426;10.300;2023-03-18T04:13:03;100761.72;;;10.49;100.00
62791;BME280;48830;53.426;10.300;2023-03-18T04:15:29;100767.69;;;10.46;100.00
62791;BME280;48830;53.426;10.300;2023-03-18T04:17:55;100769.41;;;10.46;100.00
62791;BME280;48830;53.426;10.300;2023-03-18T04:20:22;100772.84;;;10.48;100.00
62791;BME280;48830;53.426;10.300;2023-03-18T04:22:48;100780.56;;;10.48;100.00
62791;BME280;48830;53.426;10.300;2023-03-18T04:25:16;100787.38;;;10.44;100.00
62791;BME280;48830;53.426;10.300;2023-03-18T04:27:42;100787.38;;;10.46;100.00
62791;BME280;48830;53.426;10.300;2023-03-18T04:30:11;100789.09;;;10.47;100.00
62791;BME280;48830;53.426;10.300;2023-03-18T04:33:09;100783.13;;;10.48;100.00
62791;BME280;48830;53.426;10.300;2023-03-18T04:35:39;100782.25;;;10.47;100.00
62791;BME280;48830;53.426;10.300;2023-03-18T04:38:05;100786.53;;;10.47;100.00
62791;BME280;48830;53.426;10.300;2023-03-18T04:40:31;100782.25;;;10.46;100.00
62791;BME280;48830;53.426;10.300;2023-03-18T04:42:57;100787.38;;;10.44;100.00
62791;BME280;48830;53.426;10.300;2023-03-18T04:45:25;100787.31;;;10.41;100.00
62791;BME280;48830;53.426;10.300;2023-03-18T04:47:53;100788.16;;;10.42;100.00
62791;BME280;48830;53.426;10.300;2023-03-18T04:50:19;100792.44;;;10.41;100.00
62791;BME280;48830;53.426;10.300;2023-03-18T04:52:45;100791.53;;;10.38;100.00
62791;BME280;48830;53.426;10.300;2023-03-18T04:55:15;100786.38;;;10.38;100.00
62791;BME280;48830;53.426;10.300;2023-03-18T04:57:42;100777.84;;;10.39;100.00
62791;BME280;48830;53.426;10.300;2023-03-18T05:00:14;100794.84;;;10.31;100.00
62791;BME280;48830;53.426;10.300;2023-03-18T05:02:42;100798.41;;;10.39;100.00
62791;BME280;48830;53.426;10.300;2023-03-18T05:05:09;100801.81;;;10.38;100.00
62791;BME280;48830;53.426;10.300;2023-03-18T05:07:40;100799.97;;;10.31;100.00
62791;BME280;48830;53.426;10.300;2023-03-18T05:10:10;100800.84;;;10.33;100.00
62791;BME280;48830;53.426;10.300;2023-03-18T05:12:36;100806.81;;;10.30;100.00
62791;BME280;48830;53.426;10.300;2023-03-18T05:15:04;100804.25;;;10.30;100.00
62791;BME280;48830;53.426;10.300;2023-03-18T05:17:30;100799.19;;;10.33;100.00
62791;BME280;48830;53.426;10.300;2023-03-18T05:19:59;100788.00;;;10.33;100.00
62791;BME280;48830;53.426;10.300;2023-03-18T05:22:24;100782.00;;;10.32;100.00
62791;BME280;48830;53.426;10.300;2023-03-18T05:24:57;100778.63;;;10.33;100.00
62791;BME280;48830;53.426;10.300;2023-03-18T05:27:25;100792.19;;;10.26;100.00
62791;BME280;48830;53.426;10.300;2023-03-18T05:29:58;100804.91;;;10.21;100.00
62791;BME280;48830;53.426;10.300;2023-03-18T05:32:34;100804.16;;;10.24;100.00
62791;BME280;48830;53.426;10.300;2023-03-18T05:35:03;100808.44;;;10.23;100.00
62791;BME280;48830;53.426;10.300;2023-03-18T05:37:32;100795.59;;;10.25;100.00
62791;BME280;48830;53.426;10.300;2023-03-18T05:40:04;100790.53;;;10.30;100.00
62791;BME280;48830;53.426;10.300;2023-03-18T05:42:35;100795.66;;;10.28;100.00
62791;BME280;48830;53.426;10.300;2023-03-18T05:45:01;100810.19;;;10.28;100.00
62791;BME280;48830;53.426;10.300;2023-03-18T05:47:27;100810.19;;;10.28;100.00
62791;BME280;48830;53.426;10.300;2023-03-18T05:50:07;100818.81;;;10.30;100.00
62791;BME280;48830;53.426;10.300;2023-03-18T05:52:34;100822.03;;;10.19;100.00
62791;BME280;48830;53.426;10.300;2023-03-18T05:55:04;100817.91;;;10.28;100.00
62791;BME280;48830;53.426;10.300;2023-03-18T05:57:33;100829.13;;;10.33;100.00
62791;BME280;48830;53.426;10.300;2023-03-18T06:00:02;100825.75;;;10.34;100.00
62791;BME280;48830;53.426;10.300;2023-03-18T06:02:40;100823.13;;;10.32;100.00
62791;BME280;48830;53.426;10.300;2023-03-18T06:05:06;100835.09;;;10.32;100.00
62791;BME280;48830;53.426;10.300;2023-03-18T06:07:32;100830.03;;;10.35;100.00
62791;BME280;48830;53.426;10.300;2023-03-18T06:09:58;100828.31;;;10.34;100.00
62791;BME280;48830;53.426;10.300;2023-03-18T06:12:24;100836.03;;;10.37;100.00
62791;BME280;48830;53.426;10.300;2023-03-18T06:14:52;100842.91;;;10.38;100.00
62791;BME280;48830;53.426;10.300;2023-03-18T06:17:19;100846.44;;;10.43;100.00
62791;BME280;48830;53.426;10.300;2023-03-18T06:19:44;100847.25;;;10.40;100.00
62791;BME280;48830;53.426;10.300;2023-03-18T06:22:11;100848.13;;;10.41;100.00
62791;BME280;48830;53.426;10.300;2023-03-18T06:24:37;100850.69;;;10.42;100.00
62791;BME280;48830;53.426;10.300;2023-03-18T06:27:03;100853.31;;;10.44;100.00
62791;BME280;48830;53.426;10.300;2023-03-18T06:29:29;100846.50;;;10.46;100.00
62791;BME280;48830;53.426;10.300;2023-03-18T06:31:59;100855.91;;;10.45;100.00
62791;BME280;48830;53.426;10.300;2023-03-18T06:34:25;100859.34;;;10.47;100.00
62791;BME280;48830;53.426;10.300;2023-03-18T06:36:53;100850.78;;;10.47;100.00
62791;BME280;48830;53.426;10.300;2023-03-18T06:39:19;100854.28;;;10.52;100.00
62791;BME280;48830;53.426;10.300;2023-03-18T06:41:45;100841.47;;;10.54;100.00
62791;BME280;48830;53.426;10.300;2023-03-18T06:44:25;100845.88;;;10.61;100.00
62791;BME280;48830;53.426;10.300;2023-03-18T06:46:54;100845.94;;;10.65;100.00
62791;BME280;48830;53.426;10.300;2023-03-18T06:49:21;100843.41;;;10.68;100.00
62791;BME280;48830;53.426;10.300;2023-03-18T06:51:54;100840.94;;;10.76;100.00
62791;BME280;48830;53.426;10.300;2023-03-18T06:54:21;100850.38;;;10.75;100.00
62791;BME280;48830;53.426;10.300;2023-03-18T06:56:47;100860.78;;;10.82;100.00
62791;BME280;48830;53.426;10.300;2023-03-18T06:59:16;100867.66;;;10.83;100.00
62791;BME280;48830;53.426;10.300;2023-03-18T07:01:42;100877.09;;;10.84;100.00
62791;BME280;48830;53.426;10.300;2023-03-18T07:04:09;100879.81;;;10.94;100.00
62791;BME280;48830;53.426;10.300;2023-03-18T07:06:36;100881.56;;;10.97;100.00
62791;BME280;48830;53.426;10.300;2023-03-18T07:09:02;100891.09;;;11.02;100.00
62791;BME280;48830;53.426;10.300;2023-03-18T07:11:28;100895.44;;;11.08;100.00
62791;BME280;48830;53.426;10.300;2023-03-18T07:13:55;100895.59;;;11.17;100.00
62791;BME280;48830;53.426;10.300;2023-03-18T07:16:26;100891.44;;;11.25;100.00
62791;BME280;48830;53.426;10.300;2023-03-18T07:18:52;100892.31;;;11.29;100.00
62791;BME280;48830;53.426;10.300;2023-03-18T07:21:18;100899.31;;;11.38;100.00
62791;BME280;48830;53.426;10.300;2023-03-18T07:23:45;100890.81;;;11.45;100.00
62791;BME280;48830;53.426;10.300;2023-03-18T07:26:11;100901.31;;;11.59;100.00
62791;BME280;48830;53.426;10.300;2023-03-18T07:28:37;100904.88;;;11.68;100.00
62791;BME280;48830;53.426;10.300;2023-03-18T07:31:02;100900.66;;;11.73;100.00
62791;BME280;48830;53.426;10.300;2023-03-18T07:33:28;100899.00;;;11.78;100.00
62791;BME280;48830;53.426;10.300;2023-03-18T07:35:53;100903.41;;;11.89;100.00
62791;BME280;48830;53.426;10.300;2023-03-18T07:38:19;100905.31;;;12.02;100.00
62791;BME280;48830;53.426;10.300;2023-03-18T07:40:45;100907.22;;;12.21;100.00
62791;BME280;48830;53.426;10.300;2023-03-18T07:43:10;100910.81;;;12.32;100.00
62791;BME280;48830;53.426;10.300;2023-03-18T07:45:36;100917.63;;;12.27;100.00
62791;BME280;48830;53.426;10.300;2023-03-18T07:48:01;100922.69;;;12.20;100.00
62791;BME280;48830;53.426;10.300;2023-03-18T07:50:27;100926.97;;;12.21;100.00
62791;BME280;48830;53.426;10.300;2023-03-18T07:52:52;100932.97;;;12.18;100.00
62791;BME280;48830;53.426;10.300;2023-03-18T07:55:18;100924.34;;;12.13;100.00
62791;BME280;48830;53.426;10.300;2023-03-18T07:57:44;100924.28;;;12.10;100.00
62791;BME280;48830;53.426;10.300;2023-03-18T08:00:10;100929.44;;;12.08;100.00
62791;BME280;48830;53.426;10.300;2023-03-18T08:02:40;100930.34;;;12.14;100.00
62791;BME280;48830;53.426;10.300;2023-03-18T08:05:06;100930.28;;;12.11;100.00
62791;BME280;48830;53.426;10.300;2023-03-18T08:07:33;100932.91;;;12.12;100.00
62791;BME280;48830;53.426;10.300;2023-03-18T08:09:59;100928.56;;;12.09;100.00
62791;BME280;48830;53.426;10.300;2023-03-18T08:12:26;100932.00;;;12.10;100.00
62791;BME280;48830;53.426;10.300;2023-03-18T08:14:51;100938.97;;;12.17;100.00
62791;BME280;48830;53.426;10.300;2023-03-18T08:17:17;100939.00;;;12.19;100.00
62791;BME280;48830;53.426;10.300;2023-03-18T08:19:43;100953.59;;;12.21;100.00
62791;BME280;48830;53.426;10.300;2023-03-18T08:22:08;100952.00;;;12.29;100.00
62791;BME280;48830;53.426;10.300;2023-03-18T08:24:35;100949.41;;;12.29;100.00
62791;BME280;48830;53.426;10.300;2023-03-18T08:27:01;100951.16;;;12.30;100.00
62791;BME280;48830;53.426;10.300;2023-03-18T08:29:27;100948.56;;;12.30;100.00
62791;BME280;48830;53.426;10.300;2023-03-18T08:31:53;100953.03;;;12.45;100.00
62791;BME280;48830;53.426;10.300;2023-03-18T08:34:18;100948.78;;;12.49;100.00
62791;BME280;48830;53.426;10.300;2023-03-18T08:36:44;100946.25;;;12.55;100.00
62791;BME280;48830;53.426;10.300;2023-03-18T08:39:09;100959.22;;;12.64;100.00
62791;BME280;48830;53.426;10.300;2023-03-18T08:41:35;100969.63;;;12.70;100.00
62791;BME280;48830;53.426;10.300;2023-03-18T08:44:02;100966.13;;;12.65;100.00
62791;BME280;48830;53.426;10.300;2023-03-18T08:46:30;100968.72;;;12.68;100.00
62791;BME280;48830;53.426;10.300;2023-03-18T08:48:56;100961.94;;;12.78;100.00
62791;BME280;48830;53.426;10.300;2023-03-18T08:51:22;100964.56;;;12.85;100.00
62791;BME280;48830;53.426;10.300;2023-03-18T08:53:47;100969.78;;;12.90;100.00
62791;BME280;48830;53.426;10.300;2023-03-18T08:56:13;100964.56;;;12.85;100.00
62791;BME280;48830;53.426;10.300;2023-03-18T08:58:40;100964.59;;;12.88;100.00
62791;BME280;48830;53.426;10.300;2023-03-18T09:01:05;100976.69;;;12.93;100.00
62791;BME280;48830;53.426;10.300;2023-03-18T09:03:32;100977.56;;;12.95;100.00
62791;BME280;48830;53.426;10.300;2023-03-18T09:05:59;100977.56;;;12.93;100.00
62791;BME280;48830;53.426;10.300;2023-03-18T09:08:24;100981.84;;;12.94;100.00
62791;BME280;48830;53.426;10.300;2023-03-18T09:10:51;100984.41;;;12.91;100.00
62791;BME280;48830;53.426;10.300;2023-03-18T09:13:18;100989.56;;;12.91;100.00
62791;BME280;48830;53.426;10.300;2023-03-18T09:15:44;100980.97;;;12.91;100.00
62791;BME280;48830;53.426;10.300;2023-03-18T09:18:09;100993.13;;;13.04;100.00
62791;BME280;48830;53.426;10.300;2023-03-18T09:20:35;100988.06;;;13.13;100.00
62791;BME280;48830;53.426;10.300;2023-03-18T09:23:02;101002.75;;;13.23;100.00
62791;BME280;48830;53.426;10.300;2023-03-18T09:25:28;101013.81;;;13.10;100.00
62791;BME280;48830;53.426;10.300;2023-03-18T09:27:53;101016.34;;;13.04;100.00
62791;BME280;48830;53.426;10.300;2023-03-18T09:30:19;101011.41;;;13.25;100.00
62791;BME280;48830;53.426;10.300;2023-03-18T09:32:45;101011.50;;;13.37;100.00
62791;BME280;48830;53.426;10.300;2023-03-18T09:35:11;101022.69;;;13.35;100.00
62791;BME280;48830;53.426;10.300;2023-03-18T09:37:37;101021.84;;;13.41;100.00
62791;BME280;48830;53.426;10.300;2023-03-18T09:40:04;101019.31;;;13.48;100.00
62791;BME280;48830;53.426;10.300;2023-03-18T09:43:17;101021.97;;;13.59;100.00
62791;BME280;48830;53.426;10.300;2023-03-18T09:46:33;101037.56;;;13.73;100.00
62791;BME280;48830;53.426;10.300;2023-03-18T09:54:12;101024.84;;;14.12;100.00
62791;BME280;48830;53.426;10.300;2023-03-18T09:56:40;101028.56;;;14.83;100.00
62791;BME280;48830;53.426;10.300;2023-03-18T10:01:57;101030.63;;;17.02;100.00
62791;BME280;48830;53.426;10.300;2023-03-18T10:04:39;101024.94;;;16.25;100.00
62791;BME280;48830;53.426;10.300;2023-03-18T10:07:11;101022.53;;;15.52;100.00
62791;BME280;48830;53.426;10.300;2023-03-18T10:09:44;101021.66;;;15.57;100.00
62791;BME280;48830;53.426;10.300;2023-03-18T10:17:28;101036.34;;;15.09;100.00
62791;BME280;48830;53.426;10.300;2023-03-18T10:19:57;101041.53;;;14.99;100.00
62791;BME280;48830;53.426;10.300;2023-03-18T10:25:36;101034.63;;;14.98;100.00
62791;BME280;48830;53.426;10.300;2023-03-18T10:31:10;101043.28;;;15.30;100.00
62791;BME280;48830;53.426;10.300;2023-03-18T10:38:49;101047.59;;;15.74;100.00
62791;BME280;48830;53.426;10.300;2023-03-18T10:43:43;101045.84;;;15.36;100.00
62791;BME280;48830;53.426;10.300;2023-03-18T10:46:13;101047.59;;;15.23;100.00
62791;BME280;48830;53.426;10.300;2023-03-18T10:49:08;101047.59;;;15.13;100.00
62791;BME280;48830;53.426;10.300;2023-03-18T10:52:06;101045.84;;;15.06;100.00
62791;BME280;48830;53.426;10.300;2023-03-18T10:54:39;101057.94;;;15.19;100.00
62791;BME280;48830;53.426;10.300;2023-03-18T10:57:10;101057.06;;;15.02;100.00
62791;BME280;48830;53.426;10.300;2023-03-18T10:59:37;101058.75;;;14.81;100.00
62791;BME280;48830;53.426;10.300;2023-03-18T11:02:08;101056.19;;;14.86;100.00
62791;BME280;48830;53.426;10.300;2023-03-18T11:04:45;101059.53;;;14.48;100.00
62791;BME280;48830;53.426;10.300;2023-03-18T11:07:17;101065.56;;;14.49;100.00
62791;BME280;48830;53.426;10.300;2023-03-18T11:09:44;101058.75;;;14.84;100.00
62791;BME280;48830;53.426;10.300;2023-03-18T11:12:36;101058.81;;;15.30;100.00
62791;BME280;48830;53.426;10.300;2023-03-18T11:15:05;101055.34;;;15.16;100.00
62791;BME280;48830;53.426;10.300;2023-03-18T11:17:32;101053.59;;;14.93;100.00
62791;BME280;48830;53.426;10.300;2023-03-18T11:22:33;101059.66;;;15.32;100.00
62791;BME280;48830;53.426;10.300;2023-03-18T11:27:32;101057.09;;;15.46;100.00
62791;BME280;48830;53.426;10.300;2023-03-18T11:30:08;101055.34;;;15.53;100.00
62791;BME280;48830;53.426;10.300;2023-03-18T11:32:35;101048.19;;;16.49;98.91
62791;BME280;48830;53.426;10.300;2023-03-18T11:35:06;101060.34;;;16.35;98.47
62791;BME280;48830;53.426;10.300;2023-03-18T11:37:37;101056.13;;;16.13;100.00
62791;BME280;48830;53.426;10.300;2023-03-18T11:42:38;101064.66;;;16.44;99.53
62791;BME280;48830;53.426;10.300;2023-03-18T11:45:25;101068.66;;;22.14;65.81
62791;BME280;48830;53.426;10.300;2023-03-18T11:47:52;101066.19;;;21.41;64.23
62791;BME280;48830;53.426;10.300;2023-03-18T11:50:23;101061.88;;;20.23;70.75
62791;BME280;48830;53.426;10.300;2023-03-18T12:04:13;101067.94;;;19.78;71.34
62791;BME280;48830;53.426;10.300;2023-03-18T12:11:57;101075.41;;;19.98;71.16
62791;BME280;48830;53.426;10.300;2023-03-18T12:14:48;101067.97;;;20.66;64.09
62791;BME280;48830;53.426;10.300;2023-03-18T12:17:42;101066.00;;;20.33;65.72
62791;BME280;48830;53.426;10.300;2023-03-18T12:20:40;101073.25;;;20.20;66.13
62791;BME280;48830;53.426;10.300;2023-03-18T12:31:35;101078.97;;;19.94;62.33
62791;BME280;48830;53.426;10.300;2023-03-18T12:47:35;101082.66;;;21.81;56.27
62791;BME280;48830;53.426;10.300;2023-03-18T12:50:45;101074.19;;;21.37;56.53
62791;BME280;48830;53.426;10.300;2023-03-18T12:52:52;101080.59;;;21.92;54.79
62791;BME280;48830;53.426;10.300;2023-03-18T12:55:30;101071.06;;;21.19;57.83
62791;BME280;48830;53.426;10.300;2023-03-18T12:58:03;101073.47;;;20.91;61.34
62791;BME280;48830;53.426;10.300;2023-03-18T13:00:41;101074.03;;;21.43;57.62
62791;BME280;48830;53.426;10.300;2023-03-18T13:05:41;101068.75;;;20.27;62.17
62791;BME280;48830;53.426;10.300;2023-03-18T13:10:35;101082.78;;;21.42;59.13
62791;BME280;48830;53.426;10.300;2023-03-18T13:13:03;101081.25;;;21.67;58.84
62791;BME280;48830;53.426;10.300;2023-03-18T13:15:39;101077.66;;;21.71;56.77
62791;BME280;48830;53.426;10.300;2023-03-18T13:18:28;101077.41;;;21.48;57.29
62791;BME280;48830;53.426;10.300;2023-03-18T13:20:57;101073.91;;;20.73;58.22
62791;BME280;48830;53.426;10.300;2023-03-18T13:26:25;101078.56;;;20.99;59.02
62791;BME280;48830;53.426;10.300;2023-03-18T13:32:55;101078.16;;;21.52;57.08
62791;BME280;48830;53.426;10.300;2023-03-18T13:37:52;101070.31;;;20.79;59.09
62791;BME280;48830;53.426;10.300;2023-03-18T13:40:49;101077.78;;;20.54;59.67
62791;BME280;48830;53.426;10.300;2023-03-18T13:43:19;101078.00;;;20.85;59.80
62791;BME280;48830;53.426;10.300;2023-03-18T13:45:50;101072.22;;;20.70;59.34
62791;BME280;48830;53.426;10.300;2023-03-18T13:48:19;101070.50;;;20.69;58.83
62791;BME280;48830;53.426;10.300;2023-03-18T13:50:46;101069.25;;;20.44;57.87
62791;BME280;48830;53.426;10.300;2023-03-18T13:58:44;101070.75;;;19.67;61.04
62791;BME280;48830;53.426;10.300;2023-03-18T14:06:21;101073.84;;;20.34;58.57
62791;BME280;48830;53.426;10.300;2023-03-18T14:08:52;101074.56;;;20.83;56.98
62791;BME280;48830;53.426;10.300;2023-03-18T14:13:50;101078.84;;;20.45;59.23
62791;BME280;48830;53.426;10.300;2023-03-18T14:18:59;101068.78;;;20.68;58.20
62791;BME280;48830;53.426;10.300;2023-03-18T14:21:30;101073.19;;;20.66;57.24
62791;BME280;48830;53.426;10.300;2023-03-18T14:26:39;101061.84;;;20.67;57.43
62791;BME280;48830;53.426;10.300;2023-03-18T14:39:23;101071.63;;;20.96;56.64
62791;BME280;48830;53.426;10.300;2023-03-18T14:41:55;101059.38;;;20.61;58.08